createdAt,value
2023-03-29T00:01:10.157Z,2.55
2023-03-29T00:03:39.534Z,2.40
2023-03-29T00:06:15.216Z,2.10
2023-03-29T00:08:46.002Z,2.45
2023-03-29T00:11:13.747Z,2.17
2023-03-29T00:13:41.843Z,2.38
2023-03-29T00:23:44.487Z,2.38
2023-03-29T00:26:12.464Z,3.13
2023-03-29T00:28:40.203Z,2.67
2023-03-29T00:31:10.129Z,2.60
2023-03-29T00:33:38.025Z,2.40
2023-03-29T00:36:07.164Z,2.33
2023-03-29T00:38:36.172Z,2.45
2023-03-29T00:41:06.870Z,2.42
2023-03-29T00:43:53.018Z,2.58
2023-03-29T00:46:21.244Z,2.50
2023-03-29T00:48:49.304Z,2.42
2023-03-29T00:51:20.139Z,2.50
2023-03-29T00:53:51.786Z,2.58
2023-03-29T00:56:25.591Z,2.35
2023-03-29T01:01:30.406Z,3.00
2023-03-29T01:04:04.828Z,2.55
2023-03-29T01:06:36.180Z,2.95
2023-03-29T01:09:08.759Z,2.55
2023-03-29T01:11:42.724Z,2.83
2023-03-29T01:14:16.092Z,2.83
2023-03-29T01:16:43.892Z,3.10
2023-03-29T01:19:16.986Z,3.03
2023-03-29T01:21:52.556Z,2.85
2023-03-29T01:24:42.156Z,2.97
2023-03-29T01:27:15.916Z,3.20
2023-03-29T01:29:50.079Z,3.08
2023-03-29T01:32:23.360Z,3.20
2023-03-29T01:34:57.691Z,2.92
2023-03-29T01:37:31.090Z,3.08
2023-03-29T01:39:58.981Z,3.00
2023-03-29T01:42:38.317Z,3.63
2023-03-29T01:45:20.510Z,3.10
2023-03-29T01:47:57.105Z,2.97
2023-03-29T01:50:35.544Z,3.10
2023-03-29T01:53:08.784Z,3.20
2023-03-29T01:55:41.104Z,2.90
2023-03-29T01:58:12.794Z,3.15
2023-03-29T02:00:43.790Z,3.00
2023-03-29T02:03:14.919Z,3.22
2023-03-29T02:05:43.543Z,3.17
2023-03-29T02:08:16.076Z,3.03
2023-03-29T02:10:43.946Z,3.22
2023-03-29T02:13:11.755Z,2.75
2023-03-29T02:15:40.952Z,3.13
2023-03-29T02:18:08.833Z,3.15
2023-03-29T02:20:40.638Z,4.32
2023-03-29T02:23:14.721Z,4.13
2023-03-29T02:25:43.835Z,3.15
2023-03-29T02:28:11.841Z,3.30
2023-03-29T02:30:48.206Z,3.65
2023-03-29T02:33:21.790Z,3.97
2023-03-29T02:35:54.531Z,3.28
2023-03-29T02:38:25.579Z,3.42
2023-03-29T02:40:53.964Z,3.45
2023-03-29T02:43:25.925Z,3.22
2023-03-29T02:45:56.073Z,3.17
2023-03-29T02:48:28.109Z,3.45
2023-03-29T02:51:01.227Z,3.80
2023-03-29T02:53:33.885Z,5.68
2023-03-29T02:56:04.132Z,3.72
2023-03-29T02:58:32.222Z,3.28
2023-03-29T03:01:03.146Z,3.28
2023-03-29T03:03:31.799Z,3.38
2023-03-29T03:06:01.579Z,3.40
2023-03-29T03:08:29.895Z,4.55
2023-03-29T03:10:58.217Z,4.60
2023-03-29T03:13:26.146Z,3.05
2023-03-29T03:15:54.199Z,3.20
2023-03-29T03:18:23.420Z,3.42
2023-03-29T03:20:58.179Z,3.60
2023-03-29T03:23:26.759Z,3.90
2023-03-29T03:25:55.249Z,3.60
2023-03-29T03:28:24.260Z,3.90
2023-03-29T03:30:52.412Z,3.65
2023-03-29T03:33:20.158Z,3.17
2023-03-29T03:35:49.260Z,4.07
2023-03-29T03:38:17.153Z,3.20
2023-03-29T03:40:44.940Z,2.80
2023-03-29T03:43:12.719Z,3.42
2023-03-29T03:45:40.517Z,3.35
2023-03-29T03:48:08.674Z,3.40
2023-03-29T03:50:36.464Z,3.30
2023-03-29T03:53:05.603Z,3.40
2023-03-29T03:55:33.607Z,3.53
2023-03-29T03:58:01.515Z,4.00
2023-03-29T04:00:29.766Z,3.60
2023-03-29T04:02:57.580Z,3.70
2023-03-29T04:05:25.635Z,3.50
2023-03-29T04:07:54.232Z,3.58
2023-03-29T04:10:23.372Z,3.60
2023-03-29T04:12:51.098Z,3.78
2023-03-29T04:15:20.300Z,3.78
2023-03-29T04:17:48.156Z,3.90
2023-03-29T04:20:16.625Z,3.80
2023-03-29T04:22:44.375Z,4.20
2023-03-29T04:25:12.220Z,3.38
2023-03-29T04:27:41.621Z,4.07
2023-03-29T04:30:10.608Z,4.10
2023-03-29T04:32:40.981Z,3.65
2023-03-29T04:35:10.623Z,3.80
2023-03-29T04:37:40.355Z,4.53
2023-03-29T04:40:10.009Z,3.58
2023-03-29T04:42:38.341Z,4.53
2023-03-29T04:45:08.228Z,3.95
2023-03-29T04:47:36.554Z,4.05
2023-03-29T04:50:04.624Z,3.70
2023-03-29T04:52:33.402Z,4.03
2023-03-29T04:55:01.462Z,4.38
2023-03-29T04:57:30.226Z,3.83
2023-03-29T04:59:58.289Z,4.28
2023-03-29T05:02:27.525Z,3.92
2023-03-29T05:04:55.287Z,4.10
2023-03-29T05:07:23.040Z,4.68
2023-03-29T05:09:50.745Z,3.70
2023-03-29T05:12:18.499Z,8.23
2023-03-29T05:14:46.253Z,5.68
2023-03-29T05:17:14.328Z,4.22
2023-03-29T05:19:44.407Z,4.00
2023-03-29T05:22:12.234Z,4.18
2023-03-29T05:24:39.996Z,4.53
2023-03-29T05:27:07.750Z,4.80
2023-03-29T05:29:35.530Z,4.70
2023-03-29T05:32:03.348Z,4.35
2023-03-29T05:34:31.453Z,5.43
2023-03-29T05:37:01.483Z,4.53
2023-03-29T05:39:29.305Z,6.47
2023-03-29T05:41:57.056Z,6.15
2023-03-29T05:44:27.264Z,5.50
2023-03-29T05:46:55.429Z,5.57
2023-03-29T05:49:23.128Z,6.40
2023-03-29T05:51:52.041Z,5.43
2023-03-29T05:54:21.595Z,6.00
2023-03-29T05:56:49.379Z,6.00
2023-03-29T05:59:17.681Z,6.53
2023-03-29T06:01:46.919Z,9.48
2023-03-29T06:04:15.392Z,9.98
2023-03-29T06:06:43.551Z,5.93
2023-03-29T06:09:11.527Z,5.07
2023-03-29T06:11:40.762Z,5.10
2023-03-29T06:14:09.939Z,5.00
2023-03-29T06:16:38.044Z,5.03
2023-03-29T06:19:08.582Z,4.85
2023-03-29T06:21:38.554Z,5.35
2023-03-29T06:24:06.808Z,5.00
2023-03-29T06:26:35.203Z,4.93
2023-03-29T06:29:04.517Z,5.20
2023-03-29T06:31:34.640Z,5.10
2023-03-29T06:34:05.174Z,5.57
2023-03-29T06:36:36.231Z,4.80
2023-03-29T06:39:08.619Z,4.85
2023-03-29T06:41:36.767Z,5.43
2023-03-29T06:44:06.716Z,5.22
2023-03-29T06:46:41.381Z,5.28
2023-03-29T06:49:09.127Z,5.40
2023-03-29T06:51:40.638Z,4.90
2023-03-29T06:54:08.665Z,5.00
2023-03-29T06:56:39.656Z,6.28
2023-03-29T06:59:09.335Z,7.63
2023-03-29T07:01:40.069Z,5.50
2023-03-29T07:04:09.369Z,10.27
2023-03-29T07:06:39.068Z,9.32
2023-03-29T07:09:07.805Z,5.97
2023-03-29T07:11:39.237Z,5.22
2023-03-29T07:14:08.382Z,5.35
2023-03-29T07:16:37.507Z,5.63
2023-03-29T07:19:05.979Z,5.10
2023-03-29T07:21:35.936Z,4.93
2023-03-29T07:24:06.698Z,5.35
2023-03-29T07:26:34.599Z,5.47
2023-03-29T07:29:02.330Z,5.63
2023-03-29T07:31:32.945Z,6.10
2023-03-29T07:34:00.719Z,6.15
2023-03-29T07:36:28.760Z,6.18
2023-03-29T07:38:57.215Z,6.43
2023-03-29T07:41:29.705Z,7.35
2023-03-29T07:43:57.750Z,9.23
2023-03-29T07:46:26.220Z,6.30
2023-03-29T07:48:56.741Z,6.50
2023-03-29T07:51:24.687Z,5.72
2023-03-29T07:53:52.448Z,5.68
2023-03-29T07:56:20.665Z,5.97
2023-03-29T07:58:48.406Z,5.80
2023-03-29T08:01:18.859Z,5.85
2023-03-29T08:03:47.428Z,6.45
2023-03-29T08:06:17.283Z,6.15
2023-03-29T08:08:45.342Z,6.28
2023-03-29T08:11:14.075Z,6.22
2023-03-29T08:13:42.019Z,6.57
2023-03-29T08:16:10.458Z,7.65
2023-03-29T08:18:38.396Z,8.75
2023-03-29T08:21:06.491Z,6.63
2023-03-29T08:23:37.080Z,7.78
2023-03-29T08:26:05.050Z,6.40
2023-03-29T08:28:33.651Z,6.38
2023-03-29T08:31:02.039Z,7.75
2023-03-29T08:33:30.024Z,6.68
2023-03-29T08:35:57.863Z,6.55
2023-03-29T08:38:27.401Z,6.38
2023-03-29T08:40:56.723Z,14.10
2023-03-29T08:43:59.238Z,7.50
2023-03-29T08:46:37.315Z,7.38
2023-03-29T08:49:09.034Z,7.80
2023-03-29T08:51:42.503Z,8.38
2023-03-29T08:54:15.974Z,9.65
2023-03-29T08:56:47.468Z,8.10
2023-03-29T08:59:21.596Z,8.40
2023-03-29T09:01:53.135Z,7.65
2023-03-29T09:04:26.997Z,8.60
2023-03-29T09:09:29.969Z,6.85
2023-03-29T09:12:11.952Z,7.90
2023-03-29T09:14:54.315Z,8.02
2023-03-29T09:17:35.698Z,8.85
2023-03-29T09:20:19.208Z,7.88
2023-03-29T09:22:57.734Z,8.23
2023-03-29T09:25:44.026Z,8.25
2023-03-29T09:28:29.540Z,7.50
2023-03-29T09:31:02.673Z,8.30
2023-03-29T09:33:42.767Z,8.13
2023-03-29T09:36:17.282Z,9.25
2023-03-29T09:38:49.719Z,8.48
2023-03-29T09:41:23.659Z,8.82
2023-03-29T09:46:23.780Z,8.35
2023-03-29T09:48:52.672Z,7.93
2023-03-29T09:51:24.251Z,8.25
2023-03-29T09:53:52.085Z,7.88
2023-03-29T09:56:20.067Z,7.75
2023-03-29T09:58:48.155Z,7.38
2023-03-29T10:01:18.875Z,7.72
2023-03-29T10:03:49.689Z,8.27
2023-03-29T10:06:20.638Z,7.45
2023-03-29T10:08:52.454Z,8.18
2023-03-29T10:11:24.237Z,7.65
2023-03-29T10:13:57.228Z,8.10
2023-03-29T10:16:31.171Z,7.93
2023-03-29T10:18:59.013Z,7.35
2023-03-29T10:21:30.457Z,7.90
2023-03-29T10:23:59.400Z,6.47
2023-03-29T10:26:31.756Z,7.63
2023-03-29T10:29:01.817Z,7.22
2023-03-29T10:31:33.145Z,7.72
2023-03-29T10:34:05.134Z,8.30
2023-03-29T10:36:35.314Z,8.80
2023-03-29T10:39:06.388Z,9.02
2023-03-29T10:41:36.502Z,9.23
2023-03-29T10:44:05.045Z,8.50
2023-03-29T10:46:44.643Z,8.20
2023-03-29T10:49:19.320Z,7.88
2023-03-29T10:51:49.315Z,8.38
2023-03-29T10:54:21.007Z,9.18
2023-03-29T10:56:53.457Z,8.55
2023-03-29T10:59:29.405Z,8.57
2023-03-29T11:02:19.676Z,8.50
2023-03-29T11:04:52.472Z,9.18
2023-03-29T11:07:29.256Z,8.68
2023-03-29T11:10:07.914Z,8.52
2023-03-29T11:12:41.873Z,9.38
2023-03-29T11:15:23.535Z,9.00
2023-03-29T11:18:05.089Z,8.57
2023-03-29T11:20:43.067Z,8.50
2023-03-29T11:23:28.702Z,7.65
2023-03-29T11:26:09.892Z,8.73
2023-03-29T11:28:45.661Z,8.50
2023-03-29T11:31:22.807Z,9.15
2023-03-29T11:34:04.796Z,8.32
2023-03-29T11:36:41.548Z,9.40
2023-03-29T11:39:21.975Z,8.10
2023-03-29T11:41:53.642Z,8.52
2023-03-29T11:44:25.126Z,7.45
2023-03-29T11:46:58.583Z,7.03
2023-03-29T11:49:33.413Z,7.00
2023-03-29T11:52:07.942Z,7.10
2023-03-29T11:54:41.391Z,7.47
2023-03-29T11:57:16.746Z,6.97
2023-03-29T11:59:52.771Z,7.30
2023-03-29T12:02:31.006Z,7.53
2023-03-29T12:05:05.018Z,8.48
2023-03-29T12:07:42.845Z,8.57
2023-03-29T12:10:19.567Z,8.13
2023-03-29T12:12:52.559Z,8.23
2023-03-29T12:15:24.912Z,8.30
2023-03-29T12:17:59.206Z,7.57
2023-03-29T12:20:32.125Z,7.28
2023-03-29T12:23:00.702Z,7.43
2023-03-29T12:25:32.987Z,6.90
2023-03-29T12:28:15.059Z,7.35
2023-03-29T12:30:51.801Z,6.65
2023-03-29T12:33:37.221Z,7.47
2023-03-29T12:36:19.991Z,7.65
2023-03-29T12:38:49.141Z,8.07
2023-03-29T12:41:20.134Z,8.13
2023-03-29T12:43:48.910Z,8.60
2023-03-29T12:46:19.372Z,8.20
2023-03-29T12:48:50.452Z,8.43
2023-03-29T12:51:22.877Z,8.90
2023-03-29T12:53:53.538Z,8.68
2023-03-29T12:56:23.933Z,8.38
2023-03-29T12:58:56.924Z,8.60
2023-03-29T13:01:30.450Z,15.20
2023-03-29T13:04:14.806Z,7.93
2023-03-29T13:07:05.714Z,8.80
2023-03-29T13:09:36.750Z,8.73
2023-03-29T13:12:14.584Z,9.70
2023-03-29T13:14:45.238Z,9.30
2023-03-29T13:17:23.730Z,8.18
2023-03-29T13:20:04.396Z,9.15
2023-03-29T13:22:43.143Z,9.70
2023-03-29T13:25:25.476Z,9.50
2023-03-29T13:28:04.605Z,9.32
2023-03-29T13:30:46.786Z,8.85
2023-03-29T13:33:29.052Z,9.02
2023-03-29T13:36:05.476Z,9.23
2023-03-29T13:38:46.483Z,9.75
2023-03-29T13:41:28.804Z,9.85
2023-03-29T13:43:58.738Z,9.07
2023-03-29T13:46:38.256Z,9.43
2023-03-29T13:49:15.489Z,10.15
2023-03-29T13:51:48.937Z,10.35
2023-03-29T13:54:26.267Z,9.57
2023-03-29T13:57:03.206Z,10.15
2023-03-29T13:59:49.159Z,9.30
2023-03-29T14:02:24.122Z,9.25
2023-03-29T14:04:53.740Z,10.13
2023-03-29T14:07:26.190Z,9.52
2023-03-29T14:09:58.163Z,11.57
2023-03-29T14:12:31.196Z,13.95
2023-03-29T14:15:03.566Z,11.10
2023-03-29T14:17:32.434Z,9.68
2023-03-29T14:20:04.788Z,10.65
2023-03-29T14:22:35.004Z,9.27
2023-03-29T14:25:12.929Z,10.15
2023-03-29T14:27:42.608Z,10.07
2023-03-29T14:30:22.818Z,9.38
2023-03-29T14:32:52.426Z,11.13
2023-03-29T14:35:21.396Z,9.18
2023-03-29T14:37:49.743Z,8.50
2023-03-29T14:40:21.759Z,7.72
2023-03-29T14:42:51.003Z,6.95
2023-03-29T14:45:23.286Z,6.68
2023-03-29T14:47:52.855Z,6.72
2023-03-29T14:50:30.208Z,5.65
2023-03-29T14:53:00.040Z,7.15
2023-03-29T14:55:31.041Z,5.97
2023-03-29T14:58:00.186Z,5.65
2023-03-29T15:00:31.550Z,5.95
2023-03-29T15:03:01.483Z,4.35
2023-03-29T15:05:39.679Z,4.45
2023-03-29T15:08:10.464Z,5.10
2023-03-29T15:10:42.967Z,4.72
2023-03-29T15:13:17.603Z,4.28
2023-03-29T15:15:45.945Z,4.18
2023-03-29T15:18:17.130Z,4.75
2023-03-29T15:20:45.732Z,5.10
2023-03-29T15:23:25.911Z,3.85
2023-03-29T15:25:58.589Z,5.15
2023-03-29T15:28:32.440Z,4.60
2023-03-29T15:33:38.054Z,5.47
2023-03-29T15:36:07.853Z,4.90
2023-03-29T15:38:43.952Z,8.10
2023-03-29T15:41:15.374Z,6.20
2023-03-29T15:43:44.069Z,4.57
2023-03-29T15:46:13.892Z,5.00
2023-03-29T15:48:42.163Z,4.88
2023-03-29T15:51:11.568Z,4.55
2023-03-29T15:53:39.396Z,4.32
2023-03-29T15:56:10.170Z,4.35
2023-03-29T15:58:39.377Z,3.53
2023-03-29T16:01:15.849Z,3.13
2023-03-29T16:03:47.100Z,3.97
2023-03-29T16:06:16.077Z,3.60
2023-03-29T16:08:43.837Z,3.97
2023-03-29T16:11:11.577Z,3.78
2023-03-29T16:13:40.800Z,3.58
2023-03-29T16:16:11.365Z,3.45
2023-03-29T16:18:39.295Z,3.03
2023-03-29T16:21:08.853Z,3.28
2023-03-29T16:23:38.294Z,2.97
2023-03-29T16:26:06.495Z,2.70
2023-03-29T16:28:34.373Z,2.75
2023-03-29T16:31:03.527Z,3.30
2023-03-29T16:33:31.301Z,2.45
2023-03-29T16:35:59.101Z,9.73
2023-03-29T16:38:29.211Z,3.30
2023-03-29T16:40:57.121Z,3.42
2023-03-29T16:43:24.861Z,3.17
2023-03-29T16:45:52.627Z,2.83
2023-03-29T16:48:21.890Z,2.80
2023-03-29T16:50:49.881Z,5.25
2023-03-29T16:53:18.284Z,3.40
2023-03-29T16:55:46.413Z,3.25
2023-03-29T16:58:15.423Z,3.00
2023-03-29T17:00:46.409Z,3.00
2023-03-29T17:03:16.334Z,5.03
2023-03-29T17:05:50.233Z,4.43
2023-03-29T17:10:45.650Z,3.50
2023-03-29T17:13:13.716Z,3.70
2023-03-29T17:15:41.587Z,3.63
2023-03-29T17:18:09.480Z,3.15
2023-03-29T17:20:41.585Z,3.80
2023-03-29T17:23:11.051Z,5.80
2023-03-29T17:25:39.144Z,4.50
2023-03-29T17:28:06.921Z,4.53
2023-03-29T17:30:36.526Z,4.03
2023-03-29T17:33:05.904Z,3.47
2023-03-29T17:35:33.750Z,3.33
2023-03-29T17:38:02.954Z,4.03
2023-03-29T17:40:32.060Z,4.25
2023-03-29T17:42:59.917Z,4.47
2023-03-29T17:45:28.204Z,4.15
2023-03-29T17:47:56.059Z,4.15
2023-03-29T17:50:23.924Z,3.72
2023-03-29T17:52:51.791Z,3.75
2023-03-29T17:55:21.083Z,4.40
2023-03-29T17:57:50.412Z,5.47
2023-03-29T18:00:19.446Z,11.68
2023-03-29T18:02:47.262Z,4.60
2023-03-29T18:05:15.187Z,4.57
2023-03-29T18:07:42.962Z,4.35
2023-03-29T18:10:11.662Z,4.40
2023-03-29T18:12:39.458Z,5.25
2023-03-29T18:15:09.960Z,5.25
2023-03-29T18:17:37.848Z,5.65
2023-03-29T18:20:11.852Z,5.35
2023-03-29T18:22:39.945Z,4.53
2023-03-29T18:25:09.489Z,4.68
2023-03-29T18:27:37.796Z,7.78
2023-03-29T18:30:08.557Z,5.03
2023-03-29T18:32:38.033Z,4.53
2023-03-29T18:35:06.860Z,4.80
2023-03-29T18:37:34.893Z,5.40
2023-03-29T18:40:06.193Z,4.68
2023-03-29T18:42:34.038Z,9.23
2023-03-29T18:45:01.808Z,6.85
2023-03-29T18:47:29.610Z,6.60
2023-03-29T18:49:58.964Z,5.05
2023-03-29T18:52:27.488Z,5.03
2023-03-29T18:55:07.366Z,4.78
2023-03-29T18:57:35.257Z,4.30
2023-03-29T19:00:10.552Z,4.60
2023-03-29T19:02:38.691Z,4.30
2023-03-29T19:05:07.297Z,4.10
2023-03-29T19:07:35.473Z,4.32
2023-03-29T19:10:08.145Z,4.65
2023-03-29T19:12:36.348Z,6.53
2023-03-29T19:15:04.302Z,5.45
2023-03-29T19:17:32.211Z,5.13
2023-03-29T19:20:00.033Z,4.70
2023-03-29T19:22:28.004Z,4.90
2023-03-29T19:24:55.826Z,12.65
2023-03-29T19:27:25.025Z,6.55
2023-03-29T19:29:52.756Z,5.40
2023-03-29T19:32:20.711Z,5.10
2023-03-29T19:34:48.685Z,5.07
2023-03-29T19:37:17.618Z,5.47
2023-03-29T19:39:45.949Z,5.18
2023-03-29T19:42:13.843Z,6.18
2023-03-29T19:44:42.981Z,5.05
2023-03-29T19:47:10.725Z,5.82
2023-03-29T19:49:38.867Z,8.85
2023-03-29T19:52:06.852Z,7.30
2023-03-29T19:54:34.671Z,6.38
2023-03-29T19:57:02.752Z,6.03
2023-03-29T19:59:31.497Z,6.57
2023-03-29T20:02:02.388Z,5.75
2023-03-29T20:04:33.325Z,5.22
2023-03-29T20:07:01.242Z,6.03
2023-03-29T20:09:29.038Z,6.53
2023-03-29T20:11:56.833Z,5.65
2023-03-29T20:14:24.621Z,5.53
2023-03-29T20:16:54.137Z,5.72
2023-03-29T20:19:25.238Z,5.38
2023-03-29T20:21:55.083Z,6.00
2023-03-29T20:24:23.127Z,5.25
2023-03-29T20:26:51.003Z,5.50
2023-03-29T20:29:19.003Z,5.90
2023-03-29T20:31:47.464Z,5.18
2023-03-29T20:34:15.288Z,5.78
2023-03-29T20:36:45.308Z,5.70
2023-03-29T20:39:13.408Z,5.70
2023-03-29T20:41:41.208Z,5.05
2023-03-29T20:44:08.974Z,5.00
2023-03-29T20:46:38.039Z,5.75
2023-03-29T20:49:08.912Z,5.45
2023-03-29T20:51:38.616Z,5.20
2023-03-29T20:54:10.041Z,5.25
2023-03-29T20:56:42.248Z,5.18
2023-03-29T20:59:11.546Z,5.38
2023-03-29T21:01:40.550Z,5.63
2023-03-29T21:04:09.357Z,6.38
2023-03-29T21:06:39.470Z,5.15
2023-03-29T21:09:08.728Z,5.25
2023-03-29T21:11:36.520Z,5.30
2023-03-29T21:14:04.299Z,4.80
2023-03-29T21:16:32.057Z,5.00
2023-03-29T21:18:59.770Z,5.07
2023-03-29T21:21:29.533Z,5.13
2023-03-29T21:23:57.473Z,4.72
2023-03-29T21:26:27.093Z,4.63
2023-03-29T21:28:54.865Z,4.68
2023-03-29T21:31:22.657Z,4.20
2023-03-29T21:33:50.488Z,4.70
2023-03-29T21:36:18.316Z,4.72
2023-03-29T21:38:46.584Z,4.30
2023-03-29T21:41:14.582Z,4.20
2023-03-29T21:43:43.820Z,5.75
2023-03-29T21:46:12.419Z,4.38
2023-03-29T21:48:41.738Z,4.20
2023-03-29T21:51:10.119Z,4.13
2023-03-29T21:53:37.921Z,4.50
2023-03-29T21:56:06.609Z,4.43
2023-03-29T21:58:34.382Z,4.28
2023-03-29T22:01:05.210Z,4.88
2023-03-29T22:03:33.135Z,4.10
2023-03-29T22:06:02.688Z,4.32
2023-03-29T22:08:30.792Z,5.00
2023-03-29T22:10:58.757Z,3.80
2023-03-29T22:13:28.726Z,4.35
2023-03-29T22:15:58.659Z,4.28
2023-03-29T22:18:30.350Z,4.15
2023-03-29T22:20:58.322Z,4.18
2023-03-29T22:23:26.024Z,4.45
2023-03-29T22:25:53.922Z,3.95
2023-03-29T22:28:21.680Z,3.95
2023-03-29T22:30:51.327Z,4.00
2023-03-29T22:33:19.071Z,4.28
2023-03-29T22:35:48.205Z,4.15
2023-03-29T22:38:16.023Z,3.85
2023-03-29T22:40:43.803Z,4.55
2023-03-29T22:43:11.593Z,4.47
2023-03-29T22:45:39.393Z,3.80
2023-03-29T22:48:07.513Z,4.40
2023-03-29T22:50:35.366Z,4.13
2023-03-29T22:53:04.509Z,3.70
2023-03-29T22:55:32.278Z,4.72
2023-03-29T22:58:00.123Z,4.10
2023-03-29T23:00:27.910Z,3.88
2023-03-29T23:02:55.884Z,4.22
2023-03-29T23:05:24.080Z,4.32
2023-03-29T23:07:51.820Z,4.03
2023-03-29T23:10:21.038Z,4.57
2023-03-29T23:12:49.621Z,4.00
2023-03-29T23:15:17.986Z,3.33
2023-03-29T23:17:45.812Z,3.70
2023-03-29T23:20:14.001Z,3.60
2023-03-29T23:22:41.734Z,3.50
2023-03-29T23:25:10.128Z,4.07
2023-03-29T23:27:39.302Z,3.80
2023-03-29T23:30:08.810Z,3.47
2023-03-29T23:32:36.564Z,3.50
2023-03-29T23:35:05.102Z,3.00
2023-03-29T23:37:32.950Z,3.05
2023-03-29T23:40:00.722Z,2.50
2023-03-29T23:42:30.838Z,2.72
2023-03-29T23:45:00.165Z,2.65
2023-03-29T23:47:27.947Z,3.58
2023-03-29T23:49:55.782Z,2.45
2023-03-29T23:52:23.498Z,2.55
2023-03-29T23:54:51.317Z,2.78
2023-03-29T23:57:19.443Z,2.50
2023-03-29T23:59:47.175Z,2.38
